sensor_id;sensor_type;location;lat;lon;timestamp;pressure;altitude;pressure_sealevel;temperature;humidity
13836;BME280;6988;52.614;13.500;2022-07-23T00:03:17;53831.19;;;-143.77;69.15
13836;BME280;6988;52.614;13.500;2022-07-23T00:08:10;53868.13;;;-143.77;68.61
13836;BME280;6988;52.614;13.500;2022-07-23T00:13:02;53855.81;;;-143.77;68.58
13836;BME280;6988;52.614;13.500;2022-07-23T00:17:54;53806.56;;;-143.77;68.48
13836;BME280;6988;52.614;13.500;2022-07-23T00:22:47;53835.31;;;-143.77;68.38
13836;BME280;6988;52.614;13.500;2022-07-23T00:27:40;53835.31;;;-143.77;67.90
13836;BME280;6988;52.614;13.500;2022-07-23T00:32:31;53851.72;;;-143.77;67.90
13836;BME280;6988;52.614;13.500;2022-07-23T00:37:24;53864.03;;;-143.77;68.10
13836;BME280;6988;52.614;13.500;2022-07-23T00:42:16;53853.75;;;-143.77;68.07
13836;BME280;6988;52.614;13.500;2022-07-23T00:47:09;53859.91;;;-143.77;68.32
13836;BME280;6988;52.614;13.500;2022-07-23T00:52:02;53868.13;;;-143.77;66.96
13836;BME280;6988;52.614;13.500;2022-07-23T00:56:54;53868.13;;;-143.77;66.93
13836;BME280;6988;52.614;13.500;2022-07-23T01:01:46;53859.91;;;-143.77;67.34
13836;BME280;6988;52.614;13.500;2022-07-23T01:06:42;53835.31;;;-143.77;67.70
13836;BME280;6988;52.614;13.500;2022-07-23T01:11:36;53864.03;;;-143.77;68.74
13836;BME280;6988;52.614;13.500;2022-07-23T01:16:31;53841.44;;;-143.77;68.87
13836;BME280;6988;52.614;13.500;2022-07-23T01:21:24;53892.75;;;-143.77;69.03
13836;BME280;6988;52.614;13.500;2022-07-23T01:26:17;53859.91;;;-143.77;68.74
13836;BME280;6988;52.614;13.500;2022-07-23T01:31:09;53872.22;;;-143.77;69.11
13836;BME280;6988;52.614;13.500;2022-07-23T01:36:01;53870.19;;;-143.77;67.96
13836;BME280;6988;52.614;13.500;2022-07-23T01:40:52;53882.50;;;-143.77;68.25
13836;BME280;6988;52.614;13.500;2022-07-23T01:45:45;53876.34;;;-143.77;68.56
13836;BME280;6988;52.614;13.500;2022-07-23T01:50:38;53958.41;;;-143.77;69.00
13836;BME280;6988;52.614;13.500;2022-07-23T01:55:42;53894.78;;;-143.77;69.12
13836;BME280;6988;52.614;13.500;2022-07-23T02:00:35;53907.09;;;-143.77;69.49
13836;BME280;6988;52.614;13.500;2022-07-23T02:05:28;53907.09;;;-143.77;69.51
13836;BME280;6988;52.614;13.500;2022-07-23T02:10:21;53937.88;;;-143.77;69.36
13836;BME280;6988;52.614;13.500;2022-07-23T02:15:13;53903.00;;;-143.77;70.16
13836;BME280;6988;52.614;13.500;2022-07-23T02:20:07;53913.25;;;-143.77;70.87
13836;BME280;6988;52.614;13.500;2022-07-23T02:25:01;53892.75;;;-143.77;71.00
13836;BME280;6988;52.614;13.500;2022-07-23T02:29:53;53913.25;;;-143.77;71.40
13836;BME280;6988;52.614;13.500;2022-07-23T02:34:45;53925.56;;;-143.77;72.08
13836;BME280;6988;52.614;13.500;2022-07-23T02:39:37;53876.34;;;-143.77;71.12
13836;BME280;6988;52.614;13.500;2022-07-23T02:44:30;53880.44;;;-143.77;70.82
13836;BME280;6988;52.614;13.500;2022-07-23T02:49:23;53929.69;;;-143.77;71.35
13836;BME280;6988;52.614;13.500;2022-07-23T02:54:16;53878.38;;;-143.77;71.73
13836;BME280;6988;52.614;13.500;2022-07-23T02:59:08;53896.84;;;-143.77;71.41
13836;BME280;6988;52.614;13.500;2022-07-23T03:04:01;53917.38;;;-143.77;71.48
13836;BME280;6988;52.614;13.500;2022-07-23T03:08:52;53886.59;;;-143.77;71.37
13836;BME280;6988;52.614;13.500;2022-07-23T03:13:44;53859.91;;;-143.77;71.18
13836;BME280;6988;52.614;13.500;2022-07-23T03:18:36;53892.75;;;-143.77;71.55
13836;BME280;6988;52.614;13.500;2022-07-23T03:23:29;53884.53;;;-143.77;71.73
13836;BME280;6988;52.614;13.500;2022-07-23T03:28:21;53941.97;;;-143.77;71.60
13836;BME280;6988;52.614;13.500;2022-07-23T03:33:14;53894.78;;;-143.77;71.46
13836;BME280;6988;52.614;13.500;2022-07-23T03:38:07;53905.06;;;-143.77;71.46
13836;BME280;6988;52.614;13.500;2022-07-23T03:43:00;53921.47;;;-143.77;71.02
13836;BME280;6988;52.614;13.500;2022-07-23T03:47:52;53915.31;;;-143.77;70.96
13836;BME280;6988;52.614;13.500;2022-07-23T03:52:44;53921.47;;;-143.77;70.82
13836;BME280;6988;52.614;13.500;2022-07-23T03:57:37;53919.41;;;-143.77;71.11
13836;BME280;6988;52.614;13.500;2022-07-23T04:02:31;53888.63;;;-143.77;71.23
13836;BME280;6988;52.614;13.500;2022-07-23T04:07:22;53937.88;;;-143.77;70.76
13836;BME280;6988;52.614;13.500;2022-07-23T04:12:14;53917.38;;;-143.77;70.41
13836;BME280;6988;52.614;13.500;2022-07-23T04:17:06;53896.84;;;-143.77;70.68
13836;BME280;6988;52.614;13.500;2022-07-23T04:22:00;53939.94;;;-143.77;70.40
13836;BME280;6988;52.614;13.500;2022-07-23T04:26:52;53898.91;;;-143.77;70.53
13836;BME280;6988;52.614;13.500;2022-07-23T04:31:44;53913.25;;;-143.77;69.94
13836;BME280;6988;52.614;13.500;2022-07-23T04:36:36;53921.47;;;-143.77;69.58
13836;BME280;6988;52.614;13.500;2022-07-23T04:41:29;53915.31;;;-143.77;69.29
13836;BME280;6988;52.614;13.500;2022-07-23T04:46:21;53913.25;;;-143.77;69.07
13836;BME280;6988;52.614;13.500;2022-07-23T04:51:15;53894.78;;;-143.77;69.96
13836;BME280;6988;52.614;13.500;2022-07-23T04:56:08;53929.69;;;-143.77;72.59
13836;BME280;6988;52.614;13.500;2022-07-23T05:01:01;53913.25;;;-143.77;73.32
13836;BME280;6988;52.614;13.500;2022-07-23T05:05:55;53900.94;;;-143.77;73.21
13836;BME280;6988;52.614;13.500;2022-07-23T05:10:47;53944.03;;;-143.77;74.32
13836;BME280;6988;52.614;13.500;2022-07-23T05:15:39;53909.16;;;-143.77;74.89
13836;BME280;6988;52.614;13.500;2022-07-23T05:20:32;53954.28;;;-143.77;75.47
13836;BME280;6988;52.614;13.500;2022-07-23T05:25:25;53917.38;;;-143.77;75.00
13836;BME280;6988;52.614;13.500;2022-07-23T05:30:17;53941.97;;;-143.77;74.98
13836;BME280;6988;52.614;13.500;2022-07-23T05:35:11;53937.88;;;-143.77;76.08
13836;BME280;6988;52.614;13.500;2022-07-23T05:40:10;53968.66;;;-143.77;76.37
13836;BME280;6988;52.614;13.500;2022-07-23T05:45:04;53921.47;;;-143.77;76.89
13836;BME280;6988;52.614;13.500;2022-07-23T05:49:59;53941.97;;;-143.77;77.22
13836;BME280;6988;52.614;13.500;2022-07-23T05:54:58;53923.53;;;-143.77;76.92
13836;BME280;6988;52.614;13.500;2022-07-23T05:59:51;53941.97;;;-143.77;76.83
13836;BME280;6988;52.614;13.500;2022-07-23T06:04:43;53925.56;;;-143.77;76.39
13836;BME280;6988;52.614;13.500;2022-07-23T06:09:45;53958.41;;;-143.77;76.08
13836;BME280;6988;52.614;13.500;2022-07-23T06:14:39;53946.09;;;-143.77;76.68
13836;BME280;6988;52.614;13.500;2022-07-23T06:19:33;53956.34;;;-143.77;76.06
13836;BME280;6988;52.614;13.500;2022-07-23T06:24:24;54036.38;;;-143.77;76.25
13836;BME280;6988;52.614;13.500;2022-07-23T06:29:18;53962.50;;;-143.77;76.98
13836;BME280;6988;52.614;13.500;2022-07-23T06:34:09;53937.88;;;-143.77;76.79
13836;BME280;6988;52.614;13.500;2022-07-23T06:39:03;53907.09;;;-143.77;77.18
13836;BME280;6988;52.614;13.500;2022-07-23T06:43:54;53948.13;;;-143.77;76.23
13836;BME280;6988;52.614;13.500;2022-07-23T06:48:46;53929.69;;;-143.77;76.12
13836;BME280;6988;52.614;13.500;2022-07-23T06:53:38;53917.38;;;-143.77;77.12
13836;BME280;6988;52.614;13.500;2022-07-23T06:58:31;53892.75;;;-143.77;77.93
13836;BME280;6988;52.614;13.500;2022-07-23T07:03:23;53903.00;;;-143.77;78.35
13836;BME280;6988;52.614;13.500;2022-07-23T07:08:15;53941.97;;;-143.77;78.63
13836;BME280;6988;52.614;13.500;2022-07-23T07:13:07;53927.63;;;-143.77;78.04
13836;BME280;6988;52.614;13.500;2022-07-23T07:18:01;53941.97;;;-143.77;78.06
13836;BME280;6988;52.614;13.500;2022-07-23T07:22:52;53915.31;;;-143.77;78.42
13836;BME280;6988;52.614;13.500;2022-07-23T07:27:44;53923.53;;;-143.77;77.89
13836;BME280;6988;52.614;13.500;2022-07-23T07:32:36;53900.94;;;-143.77;77.71
13836;BME280;6988;52.614;13.500;2022-07-23T07:37:29;53876.34;;;-143.77;77.31
13836;BME280;6988;52.614;13.500;2022-07-23T07:42:21;53884.53;;;-143.77;75.95
13836;BME280;6988;52.614;13.500;2022-07-23T07:47:13;53894.78;;;-143.77;75.33
13836;BME280;6988;52.614;13.500;2022-07-23T07:52:05;53892.75;;;-143.77;72.86
13836;BME280;6988;52.614;13.500;2022-07-23T07:56:59;53847.59;;;-143.77;73.18
13836;BME280;6988;52.614;13.500;2022-07-23T08:01:50;53845.56;;;-143.77;74.60
13836;BME280;6988;52.614;13.500;2022-07-23T08:06:42;53802.47;;;-143.77;75.13
13836;BME280;6988;52.614;13.500;2022-07-23T08:11:34;53753.25;;;-143.77;74.52
13836;BME280;6988;52.614;13.500;2022-07-23T08:16:27;53751.19;;;-143.77;73.27
13836;BME280;6988;52.614;13.500;2022-07-23T08:21:19;53556.28;;;-143.77;71.74
13836;BME280;6988;52.614;13.500;2022-07-23T08:26:11;53517.31;;;-143.77;67.90
13836;BME280;6988;52.614;13.500;2022-07-23T08:31:03;53498.84;;;-143.77;64.34
13836;BME280;6988;52.614;13.500;2022-07-23T08:42:29;53480.38;;;-143.77;59.94
13836;BME280;6988;52.614;13.500;2022-07-23T08:47:20;53466.03;;;-143.77;59.21
13836;BME280;6988;52.614;13.500;2022-07-23T08:52:13;53453.72;;;-143.77;57.69
13836;BME280;6988;52.614;13.500;2022-07-23T08:57:05;53431.16;;;-143.77;56.67
13836;BME280;6988;52.614;13.500;2022-07-23T09:01:58;53425.00;;;-143.77;57.43
13836;BME280;6988;52.614;13.500;2022-07-23T09:06:51;53431.16;;;-143.77;57.89
13836;BME280;6988;52.614;13.500;2022-07-23T09:11:45;53299.88;;;-143.77;53.77
13836;BME280;6988;52.614;13.500;2022-07-23T09:16:37;53345.00;;;-143.77;53.38
13836;BME280;6988;52.614;13.500;2022-07-23T09:21:32;53289.63;;;-143.77;53.93
13836;BME280;6988;52.614;13.500;2022-07-23T09:26:29;53314.22;;;-143.77;50.23
13836;BME280;6988;52.614;13.500;2022-07-23T09:31:23;53400.38;;;-143.77;52.96
13836;BME280;6988;52.614;13.500;2022-07-23T09:36:15;53226.03;;;-143.77;50.68
13836;BME280;6988;52.614;13.500;2022-07-23T09:41:10;53338.84;;;-143.77;52.33
13836;BME280;6988;52.614;13.500;2022-07-23T09:46:20;53256.78;;;-143.77;52.39
13836;BME280;6988;52.614;13.500;2022-07-23T09:51:13;53285.50;;;-143.77;51.03
13836;BME280;6988;52.614;13.500;2022-07-23T09:56:08;53316.28;;;-143.77;47.14
13836;BME280;6988;52.614;13.500;2022-07-23T10:01:01;53199.34;;;-143.77;49.09
13836;BME280;6988;52.614;13.500;2022-07-23T10:05:54;53158.34;;;-143.77;47.80
13836;BME280;6988;52.614;13.500;2022-07-23T10:11:04;53248.59;;;-143.77;47.98
13836;BME280;6988;52.614;13.500;2022-07-23T10:16:18;53178.84;;;-143.77;45.93
13836;BME280;6988;52.614;13.500;2022-07-23T10:21:11;53388.06;;;-143.77;47.31
13836;BME280;6988;52.614;13.500;2022-07-23T10:26:12;53404.50;;;-143.77;48.20
13836;BME280;6988;52.614;13.500;2022-07-23T10:31:26;53425.00;;;-143.77;48.88
13836;BME280;6988;52.614;13.500;2022-07-23T10:36:28;53439.38;;;-143.77;49.54
13836;BME280;6988;52.614;13.500;2022-07-23T10:41:35;53427.06;;;-143.77;46.51
13836;BME280;6988;52.614;13.500;2022-07-23T10:46:28;53256.78;;;-143.77;46.87
13836;BME280;6988;52.614;13.500;2022-07-23T10:51:23;53265.00;;;-143.77;47.09
13836;BME280;6988;52.614;13.500;2022-07-23T10:57:06;53303.97;;;-143.77;45.52
13836;BME280;6988;52.614;13.500;2022-07-23T11:02:22;53201.41;;;-143.77;46.72
13836;BME280;6988;52.614;13.500;2022-07-23T11:07:15;53195.25;;;-143.77;45.09
13836;BME280;6988;52.614;13.500;2022-07-23T11:12:34;53178.84;;;-143.77;43.36
13836;BME280;6988;52.614;13.500;2022-07-23T11:17:29;53355.25;;;-143.77;44.23
13836;BME280;6988;52.614;13.500;2022-07-23T11:22:34;53150.13;;;-143.77;44.72
13836;BME280;6988;52.614;13.500;2022-07-23T11:27:37;53121.41;;;-143.77;44.58
13836;BME280;6988;52.614;13.500;2022-07-23T11:32:37;53156.28;;;-143.77;42.06
13836;BME280;6988;52.614;13.500;2022-07-23T11:37:34;53322.44;;;-143.77;42.85
13836;BME280;6988;52.614;13.500;2022-07-23T11:42:26;53357.31;;;-143.77;43.48
13836;BME280;6988;52.614;13.500;2022-07-23T11:47:23;53215.78;;;-143.77;44.84
13836;BME280;6988;52.614;13.500;2022-07-23T11:52:16;53373.72;;;-143.77;44.52
13836;BME280;6988;52.614;13.500;2022-07-23T11:57:09;53100.91;;;-143.77;45.58
13836;BME280;6988;52.614;13.500;2022-07-23T12:02:04;53137.81;;;-143.77;42.38
13836;BME280;6988;52.614;13.500;2022-07-23T12:06:56;53318.34;;;-143.77;43.13
13836;BME280;6988;52.614;13.500;2022-07-23T12:12:00;53349.09;;;-143.77;43.86
13836;BME280;6988;52.614;13.500;2022-07-23T12:17:07;53330.63;;;-143.77;43.50
13836;BME280;6988;52.614;13.500;2022-07-23T12:21:59;53314.22;;;-143.77;43.57
13836;BME280;6988;52.614;13.500;2022-07-23T12:27:11;53340.91;;;-143.77;43.68
13836;BME280;6988;52.614;13.500;2022-07-23T12:32:17;53369.63;;;-143.77;43.80
13836;BME280;6988;52.614;13.500;2022-07-23T12:37:28;53289.63;;;-143.77;43.56
13836;BME280;6988;52.614;13.500;2022-07-23T12:42:21;53310.13;;;-143.77;43.86
13836;BME280;6988;52.614;13.500;2022-07-23T12:47:14;53340.91;;;-143.77;42.86
13836;BME280;6988;52.614;13.500;2022-07-23T12:52:15;53363.47;;;-143.77;43.07
13836;BME280;6988;52.614;13.500;2022-07-23T12:57:07;53377.81;;;-143.77;44.11
13836;BME280;6988;52.614;13.500;2022-07-23T13:02:01;53381.94;;;-143.77;44.44
13836;BME280;6988;52.614;13.500;2022-07-23T13:06:55;53285.50;;;-143.77;44.28
13836;BME280;6988;52.614;13.500;2022-07-23T13:11:51;53388.06;;;-143.77;44.61
13836;BME280;6988;52.614;13.500;2022-07-23T13:16:44;53437.31;;;-143.77;44.72
13836;BME280;6988;52.614;13.500;2022-07-23T13:21:38;53416.78;;;-143.77;43.64
13836;BME280;6988;52.614;13.500;2022-07-23T13:26:30;53318.34;;;-143.77;43.94
13836;BME280;6988;52.614;13.500;2022-07-23T13:31:21;53320.38;;;-143.77;42.59
13836;BME280;6988;52.614;13.500;2022-07-23T13:36:13;53299.88;;;-143.77;43.19
13836;BME280;6988;52.614;13.500;2022-07-23T13:41:07;53365.50;;;-143.77;42.41
13836;BME280;6988;52.614;13.500;2022-07-23T13:45:59;53256.78;;;-143.77;42.44
13836;BME280;6988;52.614;13.500;2022-07-23T13:50:51;53256.78;;;-143.77;40.27
13836;BME280;6988;52.614;13.500;2022-07-23T13:55:44;53320.38;;;-143.77;41.38
13836;BME280;6988;52.614;13.500;2022-07-23T14:00:41;53330.63;;;-143.77;41.72
13836;BME280;6988;52.614;13.500;2022-07-23T14:05:33;53277.31;;;-143.77;41.13
13836;BME280;6988;52.614;13.500;2022-07-23T14:10:25;53273.19;;;-143.77;40.55
13836;BME280;6988;52.614;13.500;2022-07-23T14:15:17;53320.38;;;-143.77;40.26
13836;BME280;6988;52.614;13.500;2022-07-23T14:20:12;53342.94;;;-143.77;40.88
13836;BME280;6988;52.614;13.500;2022-07-23T14:25:07;53340.91;;;-143.77;41.22
13836;BME280;6988;52.614;13.500;2022-07-23T14:30:00;53340.91;;;-143.77;41.77
13836;BME280;6988;52.614;13.500;2022-07-23T14:34:53;53289.63;;;-143.77;41.27
13836;BME280;6988;52.614;13.500;2022-07-23T14:39:46;53310.13;;;-143.77;40.29
13836;BME280;6988;52.614;13.500;2022-07-23T14:44:39;53338.84;;;-143.77;41.19
13836;BME280;6988;52.614;13.500;2022-07-23T14:49:31;53279.34;;;-143.77;41.52
13836;BME280;6988;52.614;13.500;2022-07-23T14:54:23;53269.09;;;-143.77;40.47
13836;BME280;6988;52.614;13.500;2022-07-23T14:59:17;53217.81;;;-143.77;38.73
13836;BME280;6988;52.614;13.500;2022-07-23T15:04:09;53281.41;;;-143.77;38.90
13836;BME280;6988;52.614;13.500;2022-07-23T15:09:02;53338.84;;;-143.77;39.36
13836;BME280;6988;52.614;13.500;2022-07-23T15:13:54;53265.00;;;-143.77;39.12
13836;BME280;6988;52.614;13.500;2022-07-23T15:18:47;53310.13;;;-143.77;38.68
13836;BME280;6988;52.614;13.500;2022-07-23T15:23:38;53308.06;;;-143.77;39.61
13836;BME280;6988;52.614;13.500;2022-07-23T15:28:30;53299.88;;;-143.77;38.34
13836;BME280;6988;52.614;13.500;2022-07-23T15:33:22;53330.63;;;-143.77;39.71
13836;BME280;6988;52.614;13.500;2022-07-23T15:38:15;53338.84;;;-143.77;39.27
13836;BME280;6988;52.614;13.500;2022-07-23T15:43:07;53347.06;;;-143.77;39.37
13836;BME280;6988;52.614;13.500;2022-07-23T15:47:59;53265.00;;;-143.77;39.04
13836;BME280;6988;52.614;13.500;2022-07-23T15:52:51;53332.69;;;-143.77;39.71
13836;BME280;6988;52.614;13.500;2022-07-23T15:57:44;53281.41;;;-143.77;40.11
13836;BME280;6988;52.614;13.500;2022-07-23T16:02:36;53363.47;;;-143.77;38.89
13836;BME280;6988;52.614;13.500;2022-07-23T16:07:28;53392.19;;;-143.77;39.96
13836;BME280;6988;52.614;13.500;2022-07-23T16:12:20;53293.72;;;-143.77;39.36
13836;BME280;6988;52.614;13.500;2022-07-23T16:17:13;53330.63;;;-143.77;39.56
13836;BME280;6988;52.614;13.500;2022-07-23T16:22:05;53324.50;;;-143.77;39.05
13836;BME280;6988;52.614;13.500;2022-07-23T16:26:56;53328.59;;;-143.77;39.46
13836;BME280;6988;52.614;13.500;2022-07-23T16:31:48;53355.25;;;-143.77;39.83
13836;BME280;6988;52.614;13.500;2022-07-23T16:36:41;53355.25;;;-143.77;39.42
13836;BME280;6988;52.614;13.500;2022-07-23T16:41:33;53392.19;;;-143.77;39.51
13836;BME280;6988;52.614;13.500;2022-07-23T16:46:25;53404.50;;;-143.77;39.61
13836;BME280;6988;52.614;13.500;2022-07-23T16:51:18;53443.47;;;-143.77;40.40
13836;BME280;6988;52.614;13.500;2022-07-23T16:56:11;53472.19;;;-143.77;40.47
13836;BME280;6988;52.614;13.500;2022-07-23T17:01:03;53453.72;;;-143.77;40.52
13836;BME280;6988;52.614;13.500;2022-07-23T17:05:55;53431.16;;;-143.77;40.92
13836;BME280;6988;52.614;13.500;2022-07-23T17:10:47;53441.41;;;-143.77;41.25
13836;BME280;6988;52.614;13.500;2022-07-23T17:15:40;53427.06;;;-143.77;40.00
13836;BME280;6988;52.614;13.500;2022-07-23T17:20:33;53466.03;;;-143.77;40.29
13836;BME280;6988;52.614;13.500;2022-07-23T17:25:24;53457.81;;;-143.77;40.11
13836;BME280;6988;52.614;13.500;2022-07-23T17:30:16;53500.91;;;-143.77;40.94
13836;BME280;6988;52.614;13.500;2022-07-23T17:35:11;53496.81;;;-143.77;40.89
13836;BME280;6988;52.614;13.500;2022-07-23T17:40:04;53517.31;;;-143.77;41.12
13836;BME280;6988;52.614;13.500;2022-07-23T17:44:56;53486.53;;;-143.77;41.78
13836;BME280;6988;52.614;13.500;2022-07-23T17:49:47;53509.09;;;-143.77;41.85
13836;BME280;6988;52.614;13.500;2022-07-23T17:54:41;53525.53;;;-143.77;41.60
13836;BME280;6988;52.614;13.500;2022-07-23T17:59:33;53527.56;;;-143.77;41.94
13836;BME280;6988;52.614;13.500;2022-07-23T18:04:27;53486.53;;;-143.77;41.88
13836;BME280;6988;52.614;13.500;2022-07-23T18:09:18;53552.19;;;-143.77;42.13
13836;BME280;6988;52.614;13.500;2022-07-23T18:14:12;53580.91;;;-143.77;41.79
13836;BME280;6988;52.614;13.500;2022-07-23T18:19:05;53552.19;;;-143.77;41.94
13836;BME280;6988;52.614;13.500;2022-07-23T18:23:57;53568.59;;;-143.77;42.82
13836;BME280;6988;52.614;13.500;2022-07-23T18:28:49;53531.69;;;-143.77;43.34
13836;BME280;6988;52.614;13.500;2022-07-23T18:33:42;53558.34;;;-143.77;43.52
13836;BME280;6988;52.614;13.500;2022-07-23T18:38:34;53578.84;;;-143.77;43.86
13836;BME280;6988;52.614;13.500;2022-07-23T18:43:26;53589.13;;;-143.77;43.75
13836;BME280;6988;52.614;13.500;2022-07-23T18:48:19;53613.72;;;-143.77;43.48
13836;BME280;6988;52.614;13.500;2022-07-23T18:53:12;53605.53;;;-143.77;43.46
13836;BME280;6988;52.614;13.500;2022-07-23T18:58:05;53621.94;;;-143.77;44.09
13836;BME280;6988;52.614;13.500;2022-07-23T19:02:57;53626.03;;;-143.77;44.46
13836;BME280;6988;52.614;13.500;2022-07-23T19:07:49;53638.34;;;-143.77;45.29
13836;BME280;6988;52.614;13.500;2022-07-23T19:12:42;53656.81;;;-143.77;45.42
13836;BME280;6988;52.614;13.500;2022-07-23T19:17:35;53654.75;;;-143.77;45.41
13836;BME280;6988;52.614;13.500;2022-07-23T19:22:27;53634.25;;;-143.77;45.68
13836;BME280;6988;52.614;13.500;2022-07-23T19:27:19;53675.28;;;-143.77;45.75
13836;BME280;6988;52.614;13.500;2022-07-23T19:32:12;53662.97;;;-143.77;45.84
13836;BME280;6988;52.614;13.500;2022-07-23T19:37:05;53662.97;;;-143.77;46.07
13836;BME280;6988;52.614;13.500;2022-07-23T19:42:04;53679.38;;;-143.77;46.10
13836;BME280;6988;52.614;13.500;2022-07-23T19:46:56;53673.22;;;-143.77;46.40
13836;BME280;6988;52.614;13.500;2022-07-23T19:51:49;53742.97;;;-143.77;47.16
13836;BME280;6988;52.614;13.500;2022-07-23T19:56:41;53691.69;;;-143.77;47.17
13836;BME280;6988;52.614;13.500;2022-07-23T20:01:33;53662.97;;;-143.77;47.30
13836;BME280;6988;52.614;13.500;2022-07-23T20:06:25;53699.91;;;-143.77;47.75
13836;BME280;6988;52.614;13.500;2022-07-23T20:11:18;53704.00;;;-143.77;47.85
13836;BME280;6988;52.614;13.500;2022-07-23T20:16:10;53718.34;;;-143.77;48.30
13836;BME280;6988;52.614;13.500;2022-07-23T20:21:02;53724.50;;;-143.77;49.78
13836;BME280;6988;52.614;13.500;2022-07-23T20:25:54;53714.25;;;-143.77;50.25
13836;BME280;6988;52.614;13.500;2022-07-23T20:30:48;53732.72;;;-143.77;50.83
13836;BME280;6988;52.614;13.500;2022-07-23T20:35:40;53740.94;;;-143.77;50.74
13836;BME280;6988;52.614;13.500;2022-07-23T20:40:32;53716.31;;;-143.77;50.95
13836;BME280;6988;52.614;13.500;2022-07-23T20:45:24;53726.56;;;-143.77;50.43
13836;BME280;6988;52.614;13.500;2022-07-23T20:50:17;53740.94;;;-143.77;50.50
13836;BME280;6988;52.614;13.500;2022-07-23T20:55:09;53765.53;;;-143.77;50.75
13836;BME280;6988;52.614;13.500;2022-07-23T21:00:00;53753.25;;;-143.77;50.88
13836;BME280;6988;52.614;13.500;2022-07-23T21:04:52;53765.53;;;-143.77;51.27
13836;BME280;6988;52.614;13.500;2022-07-23T21:09:47;53740.94;;;-143.77;50.99
13836;BME280;6988;52.614;13.500;2022-07-23T21:14:39;53765.53;;;-143.77;50.88
13836;BME280;6988;52.614;13.500;2022-07-23T21:19:31;53773.75;;;-143.77;51.56
13836;BME280;6988;52.614;13.500;2022-07-23T21:24:22;53765.53;;;-143.77;53.25
13836;BME280;6988;52.614;13.500;2022-07-23T21:29:15;53800.41;;;-143.77;53.91
13836;BME280;6988;52.614;13.500;2022-07-23T21:34:07;53786.06;;;-143.77;54.40
13836;BME280;6988;52.614;13.500;2022-07-23T21:38:59;53790.16;;;-143.77;54.30
13836;BME280;6988;52.614;13.500;2022-07-23T21:43:50;53788.13;;;-143.77;54.37
13836;BME280;6988;52.614;13.500;2022-07-23T21:48:43;53827.09;;;-143.77;54.51
13836;BME280;6988;52.614;13.500;2022-07-23T21:53:35;53806.56;;;-143.77;55.00
13836;BME280;6988;52.614;13.500;2022-07-23T21:58:27;53823.00;;;-143.77;54.91
13836;BME280;6988;52.614;13.500;2022-07-23T22:03:19;53810.69;;;-143.77;54.98
13836;BME280;6988;52.614;13.500;2022-07-23T22:08:12;53818.88;;;-143.77;55.16
13836;BME280;6988;52.614;13.500;2022-07-23T22:13:03;53825.03;;;-143.77;55.43
13836;BME280;6988;52.614;13.500;2022-07-23T22:17:55;53855.81;;;-143.77;55.91
13836;BME280;6988;52.614;13.500;2022-07-23T22:22:49;53843.50;;;-143.77;56.13
13836;BME280;6988;52.614;13.500;2022-07-23T22:27:44;53831.19;;;-143.77;56.08
13836;BME280;6988;52.614;13.500;2022-07-23T22:32:36;53849.66;;;-143.77;56.40
13836;BME280;6988;52.614;13.500;2022-07-23T22:37:28;53859.91;;;-143.77;56.79
13836;BME280;6988;52.614;13.500;2022-07-23T22:42:20;53872.22;;;-143.77;57.46
13836;BME280;6988;52.614;13.500;2022-07-23T22:47:13;53872.22;;;-143.77;57.75
13836;BME280;6988;52.614;13.500;2022-07-23T22:52:05;53855.81;;;-143.77;57.62
13836;BME280;6988;52.614;13.500;2022-07-23T22:56:57;53864.03;;;-143.77;58.48
13836;BME280;6988;52.614;13.500;2022-07-23T23:01:49;53857.88;;;-143.77;58.87
13836;BME280;6988;52.614;13.500;2022-07-23T23:06:42;53868.13;;;-143.77;59.38
13836;BME280;6988;52.614;13.500;2022-07-23T23:11:34;53876.34;;;-143.77;59.40
13836;BME280;6988;52.614;13.500;2022-07-23T23:16:25;53898.91;;;-143.77;59.11
13836;BME280;6988;52.614;13.500;2022-07-23T23:21:18;53909.16;;;-143.77;58.95
13836;BME280;6988;52.614;13.500;2022-07-23T23:26:11;53866.06;;;-143.77;59.10
13836;BME280;6988;52.614;13.500;2022-07-23T23:31:03;53880.44;;;-143.77;59.09
13836;BME280;6988;52.614;13.500;2022-07-23T23:35:55;53925.56;;;-143.77;59.33
13836;BME280;6988;52.614;13.500;2022-07-23T23:40:46;53925.56;;;-143.77;59.52
13836;BME280;6988;52.614;13.500;2022-07-23T23:45:39;53909.16;;;-143.77;59.91
13836;BME280;6988;52.614;13.500;2022-07-23T23:50:31;53896.84;;;-143.77;60.23
13836;BME280;6988;52.614;13.500;2022-07-23T23:55:23;53905.06;;;-143.77;60.41
